createdAt,value
2022-10-09T00:00:33.092Z,11.20
2022-10-09T00:02:37.879Z,10.60
2022-10-09T00:04:42.624Z,9.20
2022-10-09T00:06:47.262Z,9.80
2022-10-09T00:08:52.527Z,10.30
2022-10-09T00:10:57.281Z,8.70
2022-10-09T00:13:02.023Z,9.40
2022-10-09T00:15:08.146Z,10.00
2022-10-09T00:17:12.826Z,10.30
2022-10-09T00:19:20.842Z,8.80
2022-10-09T00:21:27.289Z,9.40
2022-10-09T00:23:32.659Z,10.90
2022-10-09T00:25:37.439Z,9.20
2022-10-09T00:27:42.189Z,9.40
2022-10-09T00:29:46.826Z,10.70
2022-10-09T00:31:52.322Z,10.40
2022-10-09T00:33:57.100Z,9.40
2022-10-09T00:36:04.393Z,9.50
2022-10-09T00:38:09.738Z,10.00
2022-10-09T00:40:14.389Z,11.20
2022-10-09T00:42:21.494Z,9.80
2022-10-09T00:44:54.116Z,10.70
2022-10-09T00:46:59.475Z,10.30
2022-10-09T00:49:15.437Z,9.20
2022-10-09T00:51:20.154Z,9.50
2022-10-09T00:53:28.188Z,9.60
2022-10-09T00:55:35.810Z,10.40
2022-10-09T00:57:41.868Z,9.30
2022-10-09T00:59:47.065Z,9.90
2022-10-09T01:01:51.882Z,7.60
2022-10-09T01:03:56.625Z,8.70
2022-10-09T01:06:08.989Z,8.90
2022-10-09T01:08:19.983Z,7.90
2022-10-09T01:10:33.496Z,9.70
2022-10-09T01:12:47.309Z,8.60
2022-10-09T01:15:02.990Z,9.30
2022-10-09T01:17:13.008Z,8.00
2022-10-09T01:19:35.042Z,7.70
2022-10-09T01:21:49.370Z,9.50
2022-10-09T01:24:17.549Z,9.40
2022-10-09T01:27:00.024Z,9.30
2022-10-09T01:29:09.493Z,8.20
2022-10-09T01:31:17.277Z,6.30
2022-10-09T01:33:22.166Z,7.80
2022-10-09T01:35:28.287Z,6.50
2022-10-09T01:37:34.954Z,6.30
2022-10-09T01:39:41.373Z,6.50
2022-10-09T01:41:46.654Z,7.60
2022-10-09T01:43:51.349Z,6.20
2022-10-09T01:46:18.783Z,6.40
2022-10-09T01:48:24.931Z,6.30
2022-10-09T01:50:34.370Z,6.80
2022-10-09T01:52:47.188Z,6.40
2022-10-09T01:55:03.321Z,5.80
2022-10-09T01:57:10.347Z,5.80
2022-10-09T01:59:18.606Z,6.30
2022-10-09T02:01:28.155Z,6.30
2022-10-09T02:03:35.318Z,6.40
2022-10-09T02:05:42.191Z,6.40
2022-10-09T02:07:47.347Z,7.20
2022-10-09T02:09:52.668Z,6.50
2022-10-09T02:12:02.003Z,6.20
2022-10-09T02:14:06.774Z,6.90
2022-10-09T02:16:17.329Z,6.00
2022-10-09T02:18:26.610Z,6.20
2022-10-09T02:20:36.209Z,8.10
2022-10-09T02:22:41.341Z,8.40
2022-10-09T02:24:47.750Z,6.30
2022-10-09T02:26:57.411Z,7.70
2022-10-09T02:29:03.766Z,6.40
2022-10-09T02:31:17.371Z,6.70
2022-10-09T02:33:30.230Z,7.30
2022-10-09T02:35:35.377Z,8.00
2022-10-09T02:37:39.988Z,7.30
2022-10-09T02:39:48.334Z,6.90
2022-10-09T02:41:52.929Z,6.90
2022-10-09T02:43:57.651Z,6.10
2022-10-09T02:46:02.325Z,5.70
2022-10-09T02:48:06.915Z,5.90
2022-10-09T02:50:11.947Z,6.50
2022-10-09T02:52:16.593Z,7.00
2022-10-09T02:54:21.267Z,5.60
2022-10-09T02:56:26.295Z,6.40
2022-10-09T02:58:33.496Z,7.60
2022-10-09T03:00:39.297Z,6.50
2022-10-09T03:02:44.134Z,6.80
2022-10-09T03:04:48.974Z,5.90
2022-10-09T03:06:53.677Z,5.70
2022-10-09T03:08:59.582Z,7.50
2022-10-09T03:11:04.382Z,5.80
2022-10-09T03:13:09.530Z,6.30
2022-10-09T03:15:14.923Z,7.10
2022-10-09T03:17:22.433Z,5.90
2022-10-09T03:19:27.082Z,6.80
2022-10-09T03:21:31.712Z,5.60
2022-10-09T03:23:36.792Z,6.00
2022-10-09T03:25:41.397Z,5.70
2022-10-09T03:27:45.995Z,4.70
2022-10-09T03:29:50.585Z,6.10
2022-10-09T03:31:55.353Z,6.50
2022-10-09T03:34:00.428Z,6.70
2022-10-09T03:36:09.003Z,7.00
2022-10-09T03:38:14.144Z,6.30
2022-10-09T03:40:18.713Z,7.00
2022-10-09T03:42:23.411Z,6.00
2022-10-09T03:44:28.111Z,6.80
2022-10-09T03:46:32.823Z,6.00
2022-10-09T03:48:37.999Z,6.20
2022-10-09T03:50:43.427Z,6.70
2022-10-09T03:52:48.360Z,5.30
2022-10-09T03:54:53.083Z,6.60
2022-10-09T03:56:57.660Z,5.50
2022-10-09T03:59:02.321Z,6.10
2022-10-09T04:01:06.988Z,6.10
2022-10-09T04:03:11.667Z,6.30
2022-10-09T04:05:16.585Z,6.30
2022-10-09T04:07:21.251Z,7.80
2022-10-09T04:09:25.959Z,6.20
2022-10-09T04:11:30.694Z,7.40
2022-10-09T04:13:35.753Z,8.20
2022-10-09T04:15:40.429Z,8.60
2022-10-09T04:17:48.182Z,6.30
2022-10-09T04:19:52.803Z,6.70
2022-10-09T04:21:57.699Z,6.70
2022-10-09T04:24:02.342Z,7.10
2022-10-09T04:26:07.394Z,6.70
2022-10-09T04:28:14.929Z,6.20
2022-10-09T04:30:19.649Z,6.60
2022-10-09T04:32:24.286Z,5.80
2022-10-09T04:34:29.047Z,5.40
2022-10-09T04:36:33.846Z,6.40
2022-10-09T04:38:39.781Z,6.50
2022-10-09T04:40:44.503Z,6.40
2022-10-09T04:42:49.508Z,8.30
2022-10-09T04:44:54.497Z,4.70
2022-10-09T04:46:59.141Z,6.30
2022-10-09T04:49:06.539Z,6.10
2022-10-09T04:51:14.373Z,6.40
2022-10-09T04:53:19.087Z,6.00
2022-10-09T04:55:23.760Z,5.30
2022-10-09T04:57:28.533Z,5.90
2022-10-09T04:59:33.239Z,6.20
2022-10-09T05:01:38.615Z,5.40
2022-10-09T05:03:44.020Z,6.20
2022-10-09T05:05:48.695Z,8.80
2022-10-09T05:07:53.435Z,7.10
2022-10-09T05:09:58.778Z,6.00
2022-10-09T05:12:03.413Z,6.10
2022-10-09T05:14:08.045Z,5.10
2022-10-09T05:16:14.804Z,6.60
2022-10-09T05:18:19.383Z,7.80
2022-10-09T05:20:24.408Z,5.90
2022-10-09T05:22:29.051Z,5.90
2022-10-09T05:24:33.653Z,4.80
2022-10-09T05:26:38.261Z,5.50
2022-10-09T05:28:43.481Z,6.70
2022-10-09T05:30:48.180Z,6.10
2022-10-09T05:32:52.867Z,6.50
2022-10-09T05:34:57.544Z,6.00
2022-10-09T05:37:02.342Z,5.90
2022-10-09T05:39:07.032Z,7.80
2022-10-09T05:41:15.491Z,6.40
2022-10-09T05:43:20.171Z,6.60
2022-10-09T05:45:25.255Z,6.50
2022-10-09T05:47:31.609Z,7.00
2022-10-09T05:49:36.242Z,6.70
2022-10-09T05:51:41.705Z,6.00
2022-10-09T05:53:48.050Z,6.10
2022-10-09T05:55:52.720Z,6.10
2022-10-09T05:57:57.381Z,5.90
2022-10-09T06:00:02.136Z,7.00
2022-10-09T06:02:16.976Z,8.20
2022-10-09T06:04:23.406Z,5.20
2022-10-09T06:06:30.501Z,6.20
2022-10-09T06:08:36.699Z,6.30
2022-10-09T06:10:41.282Z,7.30
2022-10-09T06:12:46.126Z,6.50
2022-10-09T06:14:50.841Z,6.40
2022-10-09T06:16:55.501Z,6.60
2022-10-09T06:19:01.218Z,6.50
2022-10-09T06:21:07.027Z,7.20
2022-10-09T06:23:11.742Z,6.70
2022-10-09T06:25:16.646Z,8.00
2022-10-09T06:27:21.327Z,6.10
2022-10-09T06:29:26.452Z,6.50
2022-10-09T06:31:33.153Z,5.40
2022-10-09T06:33:39.518Z,6.00
2022-10-09T06:35:44.278Z,4.80
2022-10-09T06:37:49.384Z,5.80
2022-10-09T06:39:54.114Z,5.10
2022-10-09T06:41:59.287Z,4.90
2022-10-09T06:44:16.285Z,5.50
2022-10-09T06:46:24.282Z,4.60
2022-10-09T06:48:30.650Z,6.00
2022-10-09T06:50:37.912Z,5.20
2022-10-09T06:52:42.577Z,5.30
2022-10-09T06:54:47.307Z,5.20
2022-10-09T06:56:55.556Z,5.40
2022-10-09T06:59:04.179Z,5.90
2022-10-09T07:01:11.062Z,5.40
2022-10-09T07:03:16.070Z,6.00
2022-10-09T07:05:20.734Z,4.50
2022-10-09T07:07:25.389Z,4.90
2022-10-09T07:09:30.052Z,5.80
2022-10-09T07:11:36.211Z,4.90
2022-10-09T07:13:41.986Z,5.30
2022-10-09T07:15:47.735Z,6.00
2022-10-09T07:17:52.532Z,4.50
2022-10-09T07:19:59.948Z,5.30
2022-10-09T07:22:04.767Z,6.80
2022-10-09T07:24:09.986Z,5.50
2022-10-09T07:26:17.338Z,5.80
2022-10-09T07:28:22.634Z,6.90
2022-10-09T07:30:27.299Z,6.80
2022-10-09T07:32:31.956Z,5.10
2022-10-09T07:34:36.587Z,5.40
2022-10-09T07:36:41.278Z,5.20
2022-10-09T07:38:49.116Z,4.70
2022-10-09T07:40:54.504Z,6.00
2022-10-09T07:42:59.592Z,5.60
2022-10-09T07:45:04.640Z,5.40
2022-10-09T07:47:09.376Z,5.50
2022-10-09T07:49:14.053Z,6.80
2022-10-09T07:51:20.891Z,6.50
2022-10-09T07:53:25.584Z,6.30
2022-10-09T07:55:33.144Z,5.80
2022-10-09T07:57:40.957Z,5.30
2022-10-09T07:59:48.700Z,5.10
2022-10-09T08:01:53.578Z,5.20
2022-10-09T08:03:58.915Z,6.00
2022-10-09T08:06:04.144Z,6.00
2022-10-09T08:08:11.834Z,4.70
2022-10-09T08:10:16.784Z,5.30
2022-10-09T08:12:21.545Z,7.20
2022-10-09T08:14:26.132Z,6.80
2022-10-09T08:16:31.630Z,7.10
2022-10-09T08:18:36.911Z,6.20
2022-10-09T08:20:41.798Z,5.90
2022-10-09T08:22:46.798Z,5.90
2022-10-09T08:24:51.877Z,6.40
2022-10-09T08:26:56.647Z,5.40
2022-10-09T08:29:03.114Z,7.10
2022-10-09T08:31:13.706Z,7.10
2022-10-09T08:33:18.901Z,6.30
2022-10-09T08:35:23.671Z,5.90
2022-10-09T08:37:28.446Z,6.80
2022-10-09T08:39:33.217Z,6.80
2022-10-09T08:41:47.452Z,7.20
2022-10-09T08:43:57.172Z,6.50
2022-10-09T08:46:06.392Z,5.80
2022-10-09T08:48:18.893Z,7.10
2022-10-09T08:50:29.227Z,5.80
2022-10-09T08:52:50.006Z,7.20
2022-10-09T08:54:59.301Z,7.60
2022-10-09T08:57:11.067Z,5.80
2022-10-09T08:59:15.908Z,6.60
2022-10-09T09:01:30.391Z,6.90
2022-10-09T09:04:05.381Z,6.60
2022-10-09T09:06:14.787Z,7.00
2022-10-09T09:08:32.524Z,5.80
2022-10-09T09:10:46.864Z,8.80
2022-10-09T09:12:57.058Z,6.50
2022-10-09T09:15:16.866Z,5.90
2022-10-09T09:17:29.107Z,6.00
2022-10-09T09:19:48.932Z,6.60
2022-10-09T09:21:56.060Z,7.50
2022-10-09T09:24:04.911Z,6.80
2022-10-09T09:26:16.298Z,6.70
2022-10-09T09:28:26.518Z,7.00
2022-10-09T09:30:37.687Z,6.20
2022-10-09T09:32:50.950Z,5.60
2022-10-09T09:35:02.910Z,6.80
2022-10-09T09:37:09.922Z,6.40
2022-10-09T09:41:42.582Z,5.70
2022-10-09T09:43:47.304Z,6.10
2022-10-09T09:45:54.479Z,7.30
2022-10-09T09:48:04.433Z,7.10
2022-10-09T09:50:23.653Z,5.90
2022-10-09T09:52:39.298Z,6.70
2022-10-09T09:54:49.477Z,6.30
2022-10-09T09:57:15.834Z,7.20
2022-10-09T09:59:39.159Z,6.40
2022-10-09T10:01:45.322Z,7.10
2022-10-09T10:03:52.338Z,7.00
2022-10-09T10:05:57.185Z,5.80
2022-10-09T10:08:12.415Z,6.70
2022-10-09T10:10:24.931Z,8.70
2022-10-09T10:12:30.640Z,5.50
2022-10-09T10:14:35.986Z,6.70
2022-10-09T10:16:42.826Z,7.60
2022-10-09T10:18:47.671Z,6.00
2022-10-09T10:20:55.666Z,6.40
2022-10-09T10:23:02.228Z,7.10
2022-10-09T10:25:16.118Z,7.30
2022-10-09T10:27:27.644Z,7.00
2022-10-09T10:29:37.221Z,8.00
2022-10-09T10:31:50.103Z,5.00
2022-10-09T10:33:57.328Z,6.50
2022-10-09T10:36:02.511Z,6.00
2022-10-09T10:38:12.716Z,8.10
2022-10-09T10:40:21.490Z,5.60
2022-10-09T10:42:34.708Z,6.00
2022-10-09T10:44:48.917Z,6.00
2022-10-09T10:46:59.737Z,5.80
2022-10-09T10:49:04.957Z,6.10
2022-10-09T10:51:28.782Z,5.60
2022-10-09T10:53:49.925Z,5.90
2022-10-09T10:56:02.642Z,4.90
2022-10-09T10:58:22.792Z,5.00
2022-10-09T11:00:33.292Z,6.10
2022-10-09T11:02:57.570Z,5.90
2022-10-09T11:05:11.234Z,5.70
2022-10-09T11:07:28.676Z,5.70
2022-10-09T11:09:40.516Z,5.90
2022-10-09T11:11:54.811Z,5.40
2022-10-09T11:14:11.312Z,8.60
2022-10-09T11:16:40.804Z,4.80
2022-10-09T11:19:01.077Z,5.60
2022-10-09T11:21:17.597Z,5.90
2022-10-09T11:23:34.140Z,4.80
2022-10-09T11:25:48.327Z,7.10
2022-10-09T11:27:58.172Z,6.10
2022-10-09T11:30:05.967Z,5.30
2022-10-09T11:32:18.043Z,5.50
2022-10-09T11:34:28.103Z,5.90
2022-10-09T11:36:39.755Z,6.10
2022-10-09T11:38:46.961Z,5.30
2022-10-09T11:40:52.352Z,6.60
2022-10-09T11:43:03.311Z,6.50
2022-10-09T11:45:22.331Z,6.20
2022-10-09T11:47:35.029Z,8.10
2022-10-09T11:49:53.495Z,6.00
2022-10-09T11:52:08.841Z,5.50
2022-10-09T11:54:16.301Z,5.10
2022-10-09T11:56:25.108Z,5.70
2022-10-09T11:58:29.895Z,5.90
2022-10-09T12:00:36.728Z,4.80
2022-10-09T12:02:42.862Z,4.70
2022-10-09T12:04:54.954Z,5.70
2022-10-09T12:07:03.514Z,4.80
2022-10-09T12:09:09.663Z,4.70
2022-10-09T12:11:19.790Z,5.40
2022-10-09T12:13:42.795Z,4.60
2022-10-09T12:15:56.089Z,4.60
2022-10-09T12:18:00.786Z,5.30
2022-10-09T12:20:17.356Z,6.20
2022-10-09T12:22:27.166Z,6.00
2022-10-09T12:24:38.224Z,6.10
2022-10-09T12:26:43.451Z,6.10
2022-10-09T12:28:51.268Z,6.60
2022-10-09T12:30:57.764Z,5.70
2022-10-09T12:33:12.693Z,5.40
2022-10-09T12:35:22.414Z,5.50
2022-10-09T12:37:35.670Z,4.40
2022-10-09T12:39:40.897Z,5.80
2022-10-09T12:41:49.056Z,5.20
2022-10-09T12:43:57.743Z,4.50
2022-10-09T12:46:03.158Z,6.20
2022-10-09T12:48:13.463Z,5.50
2022-10-09T12:50:31.692Z,4.40
2022-10-09T12:52:36.389Z,6.10
2022-10-09T12:54:44.732Z,4.90
2022-10-09T12:56:50.107Z,5.40
2022-10-09T12:58:55.839Z,5.90
2022-10-09T13:01:02.918Z,7.30
2022-10-09T13:03:19.536Z,5.70
2022-10-09T13:05:34.757Z,6.10
2022-10-09T13:07:39.558Z,7.30
2022-10-09T13:09:44.558Z,6.00
2022-10-09T13:11:54.799Z,5.60
2022-10-09T13:13:59.646Z,5.50
2022-10-09T13:16:06.762Z,6.00
2022-10-09T13:18:22.509Z,7.20
2022-10-09T13:20:30.954Z,6.60
2022-10-09T13:22:36.108Z,6.80
2022-10-09T13:24:43.863Z,5.90
2022-10-09T13:26:48.515Z,5.20
2022-10-09T13:28:54.050Z,5.40
2022-10-09T13:31:08.010Z,9.70
2022-10-09T13:33:17.946Z,7.10
2022-10-09T13:35:22.682Z,7.00
2022-10-09T13:37:30.919Z,6.80
2022-10-09T13:39:35.759Z,6.30
2022-10-09T13:41:41.209Z,5.40
2022-10-09T13:43:53.065Z,5.80
2022-10-09T13:45:58.103Z,5.20
2022-10-09T13:48:02.873Z,5.70
2022-10-09T13:50:08.317Z,8.00
2022-10-09T13:52:12.930Z,8.00
2022-10-09T13:54:17.571Z,5.90
2022-10-09T13:56:22.334Z,6.70
2022-10-09T13:58:27.010Z,5.00
2022-10-09T14:00:31.886Z,9.40
2022-10-09T14:02:36.561Z,8.70
2022-10-09T14:04:44.228Z,9.40
2022-10-09T14:06:49.079Z,6.10
2022-10-09T14:08:54.294Z,6.60
2022-10-09T14:11:00.935Z,6.30
2022-10-09T14:13:05.539Z,5.50
2022-10-09T14:15:11.140Z,6.60
2022-10-09T14:17:15.768Z,6.30
2022-10-09T14:19:20.526Z,5.20
2022-10-09T14:21:25.572Z,5.00
2022-10-09T14:23:30.158Z,6.60
2022-10-09T14:25:36.997Z,4.70
2022-10-09T14:27:43.977Z,5.00
2022-10-09T14:29:49.256Z,4.40
2022-10-09T14:31:55.056Z,5.50
2022-10-09T14:34:00.700Z,5.50
2022-10-09T14:36:11.790Z,6.10
2022-10-09T14:38:16.700Z,5.70
2022-10-09T14:40:21.278Z,5.20
2022-10-09T14:42:25.977Z,5.70
2022-10-09T14:44:33.578Z,5.40
2022-10-09T14:46:38.197Z,6.40
2022-10-09T14:48:43.423Z,6.00
2022-10-09T14:50:48.120Z,5.70
2022-10-09T14:52:52.911Z,6.00
2022-10-09T14:54:57.712Z,5.30
2022-10-09T14:57:02.366Z,5.80
2022-10-09T14:59:09.608Z,4.60
2022-10-09T15:01:16.911Z,6.80
2022-10-09T15:03:21.753Z,5.40
2022-10-09T15:05:26.570Z,4.70
2022-10-09T15:07:31.315Z,5.10
2022-10-09T15:09:36.038Z,3.70
2022-10-09T15:11:40.946Z,5.40
2022-10-09T15:13:45.574Z,5.90
2022-10-09T15:15:50.257Z,9.70
2022-10-09T15:17:54.933Z,7.10
2022-10-09T15:19:59.572Z,6.70
2022-10-09T15:22:04.466Z,5.60
2022-10-09T15:24:11.454Z,8.40
2022-10-09T15:26:22.281Z,6.70
2022-10-09T15:28:27.347Z,6.80
2022-10-09T15:30:33.807Z,7.40
2022-10-09T15:32:38.518Z,10.60
2022-10-09T15:34:43.222Z,10.60
2022-10-09T15:36:47.864Z,13.00
2022-10-09T15:38:52.487Z,7.00
2022-10-09T15:40:57.817Z,9.30
2022-10-09T15:43:02.410Z,5.70
2022-10-09T15:45:09.608Z,7.10
2022-10-09T15:47:16.503Z,9.70
2022-10-09T15:49:21.575Z,13.50
2022-10-09T15:51:26.778Z,9.90
2022-10-09T15:53:31.626Z,11.50
2022-10-09T15:55:38.913Z,9.40
2022-10-09T15:57:46.232Z,10.60
2022-10-09T15:59:50.925Z,9.90
2022-10-09T16:01:55.674Z,12.80
2022-10-09T16:04:00.366Z,11.90
2022-10-09T16:06:08.423Z,10.40
2022-10-09T16:08:13.756Z,7.80
2022-10-09T16:10:18.422Z,8.90
2022-10-09T16:12:23.248Z,8.20
2022-10-09T16:14:31.219Z,9.10
2022-10-09T16:16:36.111Z,9.20
2022-10-09T16:18:40.811Z,6.80
2022-10-09T16:20:46.308Z,8.10
2022-10-09T16:22:51.500Z,9.10
2022-10-09T16:24:56.493Z,9.30
2022-10-09T16:27:01.285Z,7.80
2022-10-09T16:29:05.986Z,9.40
2022-10-09T16:31:17.055Z,10.90
2022-10-09T16:33:22.008Z,13.70
2022-10-09T16:35:27.061Z,12.60
2022-10-09T16:37:31.870Z,10.20
2022-10-09T16:39:36.648Z,12.80
2022-10-09T16:41:42.182Z,9.70
2022-10-09T16:43:49.011Z,9.70
2022-10-09T16:45:53.670Z,11.40
2022-10-09T16:48:01.498Z,10.50
2022-10-09T16:50:07.365Z,9.10
2022-10-09T16:52:15.041Z,10.20
2022-10-09T16:54:19.956Z,7.80
2022-10-09T16:56:26.953Z,9.50
2022-10-09T16:58:31.741Z,11.50
2022-10-09T17:00:36.805Z,10.20
2022-10-09T17:02:41.624Z,9.00
2022-10-09T17:04:46.624Z,10.00
2022-10-09T17:06:51.372Z,10.00
2022-10-09T17:08:59.140Z,9.20
2022-10-09T17:11:05.418Z,7.80
2022-10-09T17:13:10.532Z,10.90
2022-10-09T17:15:16.141Z,14.90
2022-10-09T17:17:21.099Z,14.10
2022-10-09T17:19:25.759Z,11.30
2022-10-09T17:21:34.426Z,10.80
2022-10-09T17:23:40.291Z,9.80
2022-10-09T17:25:45.204Z,9.20
2022-10-09T17:27:50.394Z,9.30
2022-10-09T17:29:55.758Z,11.30
2022-10-09T17:32:01.088Z,13.00
2022-10-09T17:34:06.726Z,11.40
2022-10-09T17:36:15.928Z,9.30
2022-10-09T17:38:23.841Z,9.70
2022-10-09T17:40:29.108Z,17.50
2022-10-09T17:42:34.415Z,20.00
2022-10-09T17:44:39.401Z,17.20
2022-10-09T17:46:45.937Z,13.10
2022-10-09T17:48:51.060Z,12.00
2022-10-09T17:50:58.284Z,14.30
2022-10-09T17:53:04.735Z,13.60
2022-10-09T17:55:10.801Z,12.20
2022-10-09T17:57:16.431Z,9.80
2022-10-09T17:59:21.740Z,12.60
2022-10-09T18:01:27.171Z,12.10
2022-10-09T18:03:32.463Z,15.30
2022-10-09T18:05:42.275Z,15.50
2022-10-09T18:07:55.573Z,18.60
2022-10-09T18:10:00.899Z,18.60
2022-10-09T18:12:08.351Z,22.30
2022-10-09T18:14:14.112Z,16.10
2022-10-09T18:16:22.888Z,14.30
2022-10-09T18:18:30.366Z,10.20
2022-10-09T18:20:38.769Z,12.60
2022-10-09T18:22:44.206Z,10.30
2022-10-09T18:24:49.702Z,11.40
2022-10-09T18:26:55.151Z,11.60
2022-10-09T18:29:01.988Z,12.40
2022-10-09T18:31:17.201Z,11.70
2022-10-09T18:33:23.679Z,10.50
2022-10-09T18:35:29.514Z,11.00
2022-10-09T18:37:35.111Z,9.40
2022-10-09T18:39:41.143Z,10.30
2022-10-09T18:41:47.115Z,9.20
2022-10-09T18:43:54.909Z,9.20
2022-10-09T18:46:00.483Z,10.00
2022-10-09T18:48:09.206Z,8.50
2022-10-09T18:50:15.089Z,8.40
2022-10-09T18:52:22.045Z,9.40
2022-10-09T18:54:28.946Z,14.90
2022-10-09T18:56:38.858Z,8.50
2022-10-09T18:58:50.062Z,10.10
2022-10-09T19:00:56.437Z,9.60
2022-10-09T19:03:01.320Z,7.90
2022-10-09T19:05:07.789Z,9.80
2022-10-09T19:07:16.020Z,9.20
2022-10-09T19:09:21.568Z,11.70
2022-10-09T19:11:27.307Z,10.40
2022-10-09T19:13:33.174Z,11.80
2022-10-09T19:15:38.394Z,13.00
2022-10-09T19:17:43.066Z,14.00
2022-10-09T19:19:48.576Z,18.30
2022-10-09T19:21:53.317Z,26.50
2022-10-09T19:23:58.000Z,15.50
2022-10-09T19:26:02.911Z,19.30
2022-10-09T19:28:07.676Z,17.70
2022-10-09T19:30:14.079Z,13.40
2022-10-09T19:32:21.627Z,21.90
2022-10-09T19:34:29.268Z,21.20
2022-10-09T19:36:34.526Z,19.70
2022-10-09T19:38:40.483Z,20.10
2022-10-09T19:40:45.862Z,18.70
2022-10-09T19:42:51.993Z,17.30
2022-10-09T19:44:57.152Z,15.20
2022-10-09T19:47:02.328Z,15.50
2022-10-09T19:49:10.457Z,17.30
2022-10-09T19:51:17.603Z,15.40
2022-10-09T19:53:23.475Z,13.60
2022-10-09T19:55:30.930Z,12.40
2022-10-09T19:57:36.320Z,11.50
2022-10-09T19:59:41.642Z,11.80
2022-10-09T20:01:46.820Z,11.10
2022-10-09T20:03:55.884Z,12.90
2022-10-09T20:06:03.862Z,8.90
2022-10-09T20:08:09.123Z,9.20
2022-10-09T20:10:14.037Z,11.20
2022-10-09T20:12:19.012Z,9.50
2022-10-09T20:14:23.828Z,7.70
2022-10-09T20:16:28.786Z,8.20
2022-10-09T20:18:33.805Z,9.50
2022-10-09T20:20:38.582Z,9.30
2022-10-09T20:22:43.308Z,7.50
2022-10-09T20:24:47.945Z,10.40
2022-10-09T20:26:52.669Z,8.70
2022-10-09T20:28:57.369Z,10.60
2022-10-09T20:31:03.842Z,10.00
2022-10-09T20:33:11.239Z,7.80
2022-10-09T20:35:16.160Z,10.30
2022-10-09T20:37:20.926Z,7.80
2022-10-09T20:39:25.539Z,8.20
2022-10-09T20:41:31.568Z,10.20
2022-10-09T20:43:36.843Z,8.70
2022-10-09T20:45:42.556Z,10.80
2022-10-09T20:47:47.219Z,10.50
2022-10-09T20:49:52.087Z,8.90
2022-10-09T20:51:56.781Z,9.40
2022-10-09T20:54:02.036Z,8.80
2022-10-09T20:56:12.450Z,9.50
2022-10-09T20:58:17.198Z,10.90
2022-10-09T21:00:21.848Z,10.30
2022-10-09T21:02:26.657Z,10.60
2022-10-09T21:04:31.347Z,9.30
2022-10-09T21:06:36.199Z,9.60
2022-10-09T21:08:41.163Z,10.40
2022-10-09T21:10:47.271Z,7.90
2022-10-09T21:12:52.228Z,9.90
2022-10-09T21:14:57.274Z,10.60
2022-10-09T21:17:02.054Z,7.90
2022-10-09T21:19:07.133Z,8.20
2022-10-09T21:21:14.000Z,9.50
2022-10-09T21:23:19.523Z,7.70
2022-10-09T21:25:24.165Z,7.90
2022-10-09T21:27:28.872Z,8.30
2022-10-09T21:29:33.555Z,8.70
2022-10-09T21:31:38.412Z,8.20
2022-10-09T21:33:43.121Z,7.20
2022-10-09T21:35:50.156Z,9.70
2022-10-09T21:37:54.785Z,8.60
2022-10-09T21:39:59.453Z,9.00
2022-10-09T21:42:04.477Z,8.30
2022-10-09T21:44:09.167Z,6.70
2022-10-09T21:46:13.834Z,6.50
2022-10-09T21:48:18.846Z,8.00
2022-10-09T21:50:23.520Z,7.60
2022-10-09T21:52:28.279Z,7.80
2022-10-09T21:54:33.010Z,6.70
2022-10-09T21:56:37.727Z,8.60
2022-10-09T21:58:46.763Z,7.40
2022-10-09T22:00:57.940Z,9.30
2022-10-09T22:03:02.701Z,7.80
2022-10-09T22:05:08.303Z,8.20
2022-10-09T22:07:12.972Z,8.80
2022-10-09T22:09:17.692Z,7.90
2022-10-09T22:11:22.553Z,8.80
2022-10-09T22:13:27.321Z,7.90
2022-10-09T22:15:31.942Z,7.00
2022-10-09T22:17:37.065Z,10.00
2022-10-09T22:19:42.382Z,8.50
2022-10-09T22:21:48.822Z,9.30
2022-10-09T22:23:54.084Z,7.60
2022-10-09T22:26:00.760Z,6.70
2022-10-09T22:28:06.649Z,9.00
2022-10-09T22:30:13.530Z,7.60
2022-10-09T22:32:26.997Z,7.70
2022-10-09T22:34:32.361Z,7.30
2022-10-09T22:36:37.612Z,7.70
2022-10-09T22:38:46.193Z,8.90
2022-10-09T22:41:01.736Z,7.40
2022-10-09T22:43:07.453Z,8.30
2022-10-09T22:45:15.801Z,9.50
2022-10-09T22:47:20.901Z,10.00
2022-10-09T22:49:26.034Z,9.50
2022-10-09T22:51:31.680Z,7.20
2022-10-09T22:53:38.511Z,6.50
2022-10-09T22:55:45.115Z,7.90
2022-10-09T22:57:53.430Z,7.80
2022-10-09T22:59:58.607Z,7.50
2022-10-09T23:02:04.999Z,9.60
2022-10-09T23:04:12.690Z,7.60
2022-10-09T23:06:19.815Z,7.10
2022-10-09T23:08:25.011Z,7.90
2022-10-09T23:10:31.371Z,7.10
2022-10-09T23:12:36.462Z,7.30
2022-10-09T23:14:41.543Z,8.70
2022-10-09T23:16:46.299Z,7.50
2022-10-09T23:18:51.071Z,8.20
2022-10-09T23:20:55.713Z,7.90
2022-10-09T23:23:00.414Z,7.20
2022-10-09T23:25:06.224Z,8.00
2022-10-09T23:27:22.034Z,8.40
2022-10-09T23:29:26.891Z,7.50
2022-10-09T23:31:32.284Z,8.10
2022-10-09T23:33:37.563Z,6.90
2022-10-09T23:35:45.417Z,7.20
2022-10-09T23:37:52.159Z,8.40
2022-10-09T23:39:56.853Z,7.00
2022-10-09T23:42:02.001Z,6.80
2022-10-09T23:44:06.670Z,7.30
2022-10-09T23:46:13.750Z,8.30
2022-10-09T23:48:18.770Z,6.30
2022-10-09T23:50:23.437Z,6.40
2022-10-09T23:52:28.126Z,7.70
2022-10-09T23:54:32.830Z,7.60
2022-10-09T23:56:37.864Z,6.30
2022-10-09T23:58:42.540Z,7.60
